Terminal Aerodrome Forecast
Issued by NWS Charleston, WV

Current Version | Previous Version | Text Only | Print | Product List | Glossary Off
Versions: 1 2 3 4 5 6 7 8 9 10 11 12 13 14 15 16 17 18 19 20 21 22 23

000
FTUS41 KRLX 160300 AAA
TAFBKW
TAF AMD
KBKW 160302Z 1603/1624 15008G13KT P6SM SKC
     FM160700 18008G16KT P6SM OVC040
     FM161000 18008G16KT 5SM -SHRA OVC035
     FM161500 20010G18KT P6SM OVC012=

USA.gov is the U.S. government's official web portal to all federal, state and local government web resources and services.